Time;durP1;ratioP1;P1;durP2;ratioP2;P2;SDS_P1;SDS_P2;PMS_P1;PMS_P2;Temp;Humidity;BMP_temperature;BMP_pressure;BME280_temperature;BME280_humidity;BME280_pressure;Samples;Min_cycle;Max_cycle;Signal;HPM_P1;HPM_P2
2022/11/24 00:01:54;;;;;;;52.73;33.43;;;3.30;99.90;;;;;;5020079;28;20301;-53
2022/11/24 00:04:20;;;;;;;55.87;32.70;;;3.20;99.90;;;;;;5023888;28;20207;-54
2022/11/24 00:06:45;;;;;;;53.97;34.17;;;3.20;99.90;;;;;;5025967;28;20234;-56
2022/11/24 00:09:12;;;;;;;54.33;33.47;;;3.30;99.90;;;;;;5025380;28;20234;-54
2022/11/24 00:11:37;;;;;;;54.53;34.97;;;3.30;99.90;;;;;;5025807;28;20572;-55
2022/11/24 00:14:04;;;;;;;53.83;34.73;;;3.30;99.90;;;;;;5033058;28;20211;-54
2022/11/24 00:16:34;;;;;;;50.17;34.00;;;3.20;99.90;;;;;;5028893;28;20290;-55
2022/11/24 00:19:02;;;;;;;62.07;35.97;;;3.20;99.90;;;;;;5028562;28;20233;-55
2022/11/24 00:21:30;;;;;;;51.53;33.20;;;3.20;99.90;;;;;;5028677;28;20210;-55
2022/11/24 00:23:56;;;;;;;58.93;34.67;;;3.20;99.90;;;;;;5028582;28;20666;-54
2022/11/24 00:26:30;;;;;;;55.63;34.33;;;3.20;99.90;;;;;;5028343;28;20208;-54
2022/11/24 00:28:59;;;;;;;55.90;33.90;;;3.20;99.90;;;;;;5026026;28;20217;-54
2022/11/24 00:31:27;;;;;;;64.77;35.40;;;3.20;99.90;;;;;;5029272;28;20208;-53
2022/11/24 00:33:55;;;;;;;56.63;33.27;;;3.20;99.90;;;;;;5029159;28;20205;-54
2022/11/24 00:36:22;;;;;;;50.70;31.33;;;3.20;99.90;;;;;;5026848;28;20222;-54
2022/11/24 00:38:53;;;;;;;56.23;33.23;;;3.20;99.90;;;;;;5028470;28;20201;-54
2022/11/24 00:41:18;;;;;;;59.10;34.90;;;3.20;99.90;;;;;;5040292;28;20213;-53
2022/11/24 00:43:44;;;;;;;58.83;34.47;;;3.20;99.90;;;;;;5024707;28;20210;-54
2022/11/24 00:46:09;;;;;;;53.87;32.70;;;3.20;99.90;;;;;;5024769;28;20211;-55
2022/11/24 00:48:35;;;;;;;52.50;32.77;;;3.30;99.90;;;;;;5028944;28;20602;-54
2022/11/24 00:51:03;;;;;;;49.70;32.70;;;3.30;99.90;;;;;;5029395;28;20543;-55
2022/11/24 00:53:29;;;;;;;50.43;31.17;;;3.30;99.90;;;;;;5028770;28;20213;-55
2022/11/24 00:55:55;;;;;;;55.70;34.63;;;3.20;99.90;;;;;;5028459;28;20238;-56
2022/11/24 00:58:21;;;;;;;50.53;32.53;;;3.20;99.90;;;;;;5026709;28;20228;-55
2022/11/24 01:00:47;;;;;;;57.87;34.47;;;3.20;99.90;;;;;;5028337;28;20206;-54
2022/11/24 01:03:14;;;;;;;52.70;33.03;;;3.20;99.90;;;;;;5030135;28;20829;-53
2022/11/24 01:05:40;;;;;;;48.73;32.17;;;3.20;99.90;;;;;;5026130;28;20206;-54
2022/11/24 01:08:06;;;;;;;50.97;34.97;;;3.20;99.90;;;;;;5028335;28;20209;-54
2022/11/24 01:10:32;;;;;;;54.87;33.50;;;3.20;99.90;;;;;;5028080;28;20561;-54
2022/11/24 01:12:58;;;;;;;53.30;33.23;;;3.20;99.90;;;;;;5028950;28;20261;-54
2022/11/24 01:15:24;;;;;;;49.47;32.87;;;3.20;99.90;;;;;;5029113;28;20324;-54
2022/11/24 01:17:49;;;;;;;47.93;31.87;;;3.20;99.90;;;;;;5028884;28;20191;-53
2022/11/24 01:20:15;;;;;;;48.17;32.23;;;3.10;99.90;;;;;;5028491;28;20229;-54
2022/11/24 01:22:41;;;;;;;50.10;32.70;;;3.10;99.90;;;;;;5028598;28;20201;-54
2022/11/24 01:25:09;;;;;;;48.30;32.50;;;3.20;99.90;;;;;;5026359;28;20234;-55
2022/11/24 01:27:34;;;;;;;53.53;33.23;;;3.10;99.90;;;;;;5027477;28;20204;-54
2022/11/24 01:30:00;;;;;;;47.33;31.07;;;3.10;99.90;;;;;;5028264;28;20340;-54
2022/11/24 01:32:25;;;;;;;45.53;29.43;;;3.10;99.90;;;;;;5027978;28;20319;-53
2022/11/24 01:34:51;;;;;;;48.27;30.83;;;3.10;99.90;;;;;;5031936;28;20217;-53
2022/11/24 01:37:16;;;;;;;45.27;30.67;;;3.10;99.90;;;;;;5023184;28;20735;-54
2022/11/24 01:39:42;;;;;;;45.20;30.87;;;3.10;99.90;;;;;;5028318;28;20206;-54
2022/11/24 01:42:08;;;;;;;50.27;32.50;;;3.10;99.90;;;;;;5028419;28;20918;-54
2022/11/24 01:44:33;;;;;;;49.97;32.67;;;3.10;99.90;;;;;;5028120;28;20198;-53
2022/11/24 01:47:26;;;;;;;54.43;34.30;;;3.00;99.90;;;;;;5029723;28;20281;-54
2022/11/24 01:49:54;;;;;;;50.07;33.77;;;3.10;99.90;;;;;;5027554;28;20998;-54
2022/11/24 01:52:31;;;;;;;50.40;32.07;;;3.10;99.90;;;;;;5026268;28;20246;-53
2022/11/24 01:55:02;;;;;;;50.93;31.17;;;3.00;99.90;;;;;;5029962;28;20892;-54
2022/11/24 01:57:37;;;;;;;49.83;32.53;;;3.00;99.90;;;;;;5036371;28;20789;-53
2022/11/24 02:00:08;;;;;;;56.87;33.00;;;3.10;99.90;;;;;;5027531;28;20707;-54
2022/11/24 02:02:34;;;;;;;50.10;31.43;;;3.10;99.90;;;;;;5027193;28;20199;-54
2022/11/24 02:05:14;;;;;;;47.17;30.67;;;3.10;99.90;;;;;;5027127;28;20199;-54
2022/11/24 02:07:40;;;;;;;44.30;30.17;;;3.20;99.90;;;;;;5024420;28;20214;-54
2022/11/24 02:10:10;;;;;;;46.57;30.90;;;3.20;99.90;;;;;;5028879;28;20209;-53
2022/11/24 02:12:38;;;;;;;49.80;31.67;;;3.10;99.90;;;;;;5027528;28;20213;-54
2022/11/24 02:15:04;;;;;;;54.60;31.73;;;3.10;99.90;;;;;;5025888;28;20206;-55
2022/11/24 02:17:29;;;;;;;49.53;29.57;;;3.10;99.90;;;;;;5027521;28;20630;-55
2022/11/24 02:20:03;;;;;;;45.27;27.77;;;3.10;99.90;;;;;;5026668;28;20301;-54
2022/11/24 02:22:49;;;;;;;49.33;29.47;;;3.10;99.90;;;;;;5027029;28;20217;-55
2022/11/24 02:25:35;;;;;;;50.77;29.63;;;3.20;99.90;;;;;;5026637;28;20241;-53
2022/11/24 02:28:04;;;;;;;44.57;28.53;;;3.20;99.90;;;;;;5026892;28;20204;-54
2022/11/24 02:30:30;;;;;;;48.93;28.97;;;3.20;99.90;;;;;;5026906;28;20309;-54
2022/11/24 02:32:55;;;;;;;49.97;30.77;;;3.20;99.90;;;;;;5026851;28;20201;-53
2022/11/24 02:35:21;;;;;;;43.17;29.20;;;3.20;99.90;;;;;;5025780;28;20303;-54
2022/11/24 02:37:47;;;;;;;42.57;28.47;;;3.10;99.90;;;;;;5026917;28;20202;-54
2022/11/24 02:40:23;;;;;;;48.47;29.40;;;3.10;99.90;;;;;;5027437;28;20202;-53
2022/11/24 02:42:53;;;;;;;49.77;30.93;;;3.20;99.90;;;;;;5027793;28;20202;-53
2022/11/24 02:45:19;;;;;;;45.13;30.47;;;3.20;99.90;;;;;;5027046;28;20211;-53
2022/11/24 02:47:45;;;;;;;47.30;31.07;;;3.20;99.90;;;;;;5027236;28;20202;-53
2022/11/24 02:50:10;;;;;;;43.30;28.23;;;3.10;99.90;;;;;;5026672;28;21427;-53
2022/11/24 02:52:37;;;;;;;42.57;29.57;;;3.10;99.90;;;;;;5027004;28;20286;-53
2022/11/24 02:55:03;;;;;;;46.17;28.93;;;3.00;99.90;;;;;;5026582;28;20764;-53
2022/11/24 02:57:28;;;;;;;49.60;30.67;;;3.00;99.90;;;;;;5025116;28;20745;-53
2022/11/24 02:59:54;;;;;;;47.47;30.73;;;3.00;99.90;;;;;;5028316;28;20188;-52
2022/11/24 03:02:19;;;;;;;44.37;29.90;;;3.00;99.90;;;;;;5027312;28;20244;-52
2022/11/24 03:04:45;;;;;;;45.43;28.03;;;3.00;99.90;;;;;;5026572;28;20204;-53
2022/11/24 03:07:10;;;;;;;43.23;28.87;;;2.90;99.90;;;;;;5026693;28;20210;-52
2022/11/24 03:09:36;;;;;;;43.37;28.83;;;2.90;99.90;;;;;;5026469;28;20535;-53
2022/11/24 03:12:02;;;;;;;49.33;28.13;;;3.00;99.90;;;;;;5025046;28;20211;-53
2022/11/24 03:14:27;;;;;;;41.27;29.77;;;2.90;99.90;;;;;;5025995;28;20203;-53
2022/11/24 03:16:52;;;;;;;47.53;29.97;;;2.90;99.90;;;;;;5025986;28;20216;-55
2022/11/24 03:19:18;;;;;;;43.30;29.20;;;2.90;99.90;;;;;;5029390;28;20564;-54
2022/11/24 03:21:43;;;;;;;44.40;30.13;;;2.90;99.90;;;;;;5023314;28;20366;-54
2022/11/24 03:24:09;;;;;;;50.53;31.50;;;2.90;99.90;;;;;;5025703;28;20205;-53
2022/11/24 03:26:35;;;;;;;46.43;29.03;;;2.90;99.90;;;;;;5024251;28;20203;-54
2022/11/24 03:29:00;;;;;;;42.90;28.03;;;2.90;99.90;;;;;;5026646;28;20568;-54
2022/11/24 03:31:26;;;;;;;48.17;28.80;;;2.90;99.90;;;;;;5030964;28;20225;-55
2022/11/24 03:33:51;;;;;;;47.13;32.13;;;2.90;99.90;;;;;;5028601;28;20210;-55
2022/11/24 03:36:17;;;;;;;45.33;30.63;;;2.90;99.90;;;;;;5027789;28;20220;-55
2022/11/24 03:38:43;;;;;;;41.33;27.93;;;2.90;99.90;;;;;;5024067;28;20198;-53
2022/11/24 03:41:08;;;;;;;45.53;29.37;;;2.90;99.90;;;;;;5025814;28;20194;-53
2022/11/24 03:43:34;;;;;;;46.97;29.80;;;2.90;99.90;;;;;;5025356;28;20206;-54
2022/11/24 03:45:59;;;;;;;47.70;29.63;;;2.90;99.90;;;;;;5025721;28;20329;-54
2022/11/24 03:48:24;;;;;;;48.63;29.47;;;2.90;99.90;;;;;;5027138;28;20222;-54
2022/11/24 03:50:55;;;;;;;50.33;29.23;;;3.00;99.90;;;;;;5029749;28;20203;-54
2022/11/24 03:53:21;;;;;;;53.17;28.00;;;3.00;99.90;;;;;;5026604;28;20339;-54
2022/11/24 03:55:46;;;;;;;47.97;30.90;;;3.00;99.90;;;;;;5033254;28;20303;-54
2022/11/24 03:58:12;;;;;;;42.80;30.57;;;3.00;99.90;;;;;;5027603;28;20229;-54
2022/11/24 04:00:38;;;;;;;48.67;31.70;;;3.00;99.90;;;;;;5030725;28;20279;-54
2022/11/24 04:03:03;;;;;;;47.03;31.00;;;3.00;99.90;;;;;;5030480;28;20191;-54
2022/11/24 04:05:29;;;;;;;45.73;29.63;;;3.00;99.90;;;;;;5028282;28;20230;-54
2022/11/24 04:08:01;;;;;;;45.87;29.97;;;3.00;99.90;;;;;;5029648;28;20208;-55
2022/11/24 04:10:27;;;;;;;46.67;29.00;;;3.00;99.90;;;;;;5036185;28;20221;-54
2022/11/24 04:12:52;;;;;;;49.90;31.17;;;3.00;99.90;;;;;;5036640;28;21012;-54
2022/11/24 04:15:19;;;;;;;44.43;30.10;;;3.00;99.90;;;;;;5032907;28;20291;-55
2022/11/24 04:17:47;;;;;;;47.93;30.50;;;3.00;99.90;;;;;;5034006;28;20210;-54
2022/11/24 04:20:12;;;;;;;48.03;29.73;;;3.00;99.90;;;;;;5026815;28;20240;-54
2022/11/24 04:22:38;;;;;;;44.03;29.13;;;3.00;99.90;;;;;;5032575;28;20206;-54
2022/11/24 04:25:04;;;;;;;41.37;28.73;;;3.00;99.90;;;;;;5038540;28;20859;-55
2022/11/24 04:27:32;;;;;;;51.10;30.43;;;2.90;99.90;;;;;;5037126;28;20191;-55
2022/11/24 04:29:57;;;;;;;43.57;28.67;;;2.90;99.90;;;;;;5038947;28;20695;-54
2022/11/24 04:32:23;;;;;;;45.20;29.13;;;2.80;99.90;;;;;;5039452;28;20230;-56
2022/11/24 04:34:48;;;;;;;44.13;28.23;;;2.80;99.90;;;;;;5040464;28;20658;-55
2022/11/24 04:37:14;;;;;;;48.57;28.27;;;2.80;99.90;;;;;;5030286;28;20770;-55
2022/11/24 04:39:40;;;;;;;41.53;27.47;;;2.80;99.90;;;;;;5035049;28;20206;-56
2022/11/24 04:42:05;;;;;;;40.50;27.13;;;2.80;99.90;;;;;;5025324;28;20762;-55
2022/11/24 04:44:31;;;;;;;45.23;29.83;;;2.80;99.90;;;;;;5030596;28;20195;-55
2022/11/24 04:47:00;;;;;;;42.23;28.23;;;2.80;99.90;;;;;;5028998;28;20964;-55
2022/11/24 04:49:26;;;;;;;42.13;29.17;;;2.70;99.90;;;;;;5030111;28;20214;-55
2022/11/24 04:51:51;;;;;;;45.17;28.43;;;2.70;99.90;;;;;;5027235;28;20285;-54
2022/11/24 04:54:17;;;;;;;50.47;29.80;;;2.80;99.90;;;;;;5028564;28;20220;-53
2022/11/24 04:56:43;;;;;;;49.57;31.27;;;2.80;99.90;;;;;;5025696;28;20233;-53
2022/11/24 04:59:14;;;;;;;48.07;29.57;;;2.80;99.90;;;;;;5028701;28;20210;-54
2022/11/24 05:01:44;;;;;;;42.80;28.53;;;2.80;99.90;;;;;;5028887;28;20207;-53
2022/11/24 05:04:11;;;;;;;45.00;26.93;;;2.80;99.90;;;;;;5028487;28;20215;-53
2022/11/24 05:06:37;;;;;;;42.20;27.33;;;2.80;99.90;;;;;;5028571;28;20207;-54
2022/11/24 05:09:03;;;;;;;37.03;27.20;;;2.80;99.90;;;;;;5027907;28;20216;-54
2022/11/24 05:11:29;;;;;;;44.17;26.83;;;2.90;99.90;;;;;;5028104;28;20266;-53
2022/11/24 05:13:54;;;;;;;37.47;25.30;;;2.90;99.90;;;;;;5028145;28;20211;-54
2022/11/24 05:16:20;;;;;;;41.10;25.33;;;2.90;99.90;;;;;;5026836;28;20228;-53
2022/11/24 05:18:45;;;;;;;34.30;23.00;;;3.00;99.90;;;;;;5028604;28;20540;-54
2022/11/24 05:21:11;;;;;;;43.50;26.00;;;2.90;99.90;;;;;;5028750;28;20642;-54
2022/11/24 05:23:37;;;;;;;39.47;26.30;;;2.90;99.90;;;;;;5029170;28;20627;-54
2022/11/24 05:26:03;;;;;;;34.90;24.23;;;2.90;99.90;;;;;;5027026;28;20200;-55
2022/11/24 05:28:28;;;;;;;42.70;24.50;;;2.90;99.90;;;;;;5027849;28;20205;-54
2022/11/24 05:30:58;;;;;;;36.77;24.27;;;2.80;99.90;;;;;;5027987;28;20215;-54
2022/11/24 05:33:23;;;;;;;41.47;25.90;;;2.80;99.90;;;;;;5028119;28;20237;-54
2022/11/24 05:35:49;;;;;;;34.50;25.40;;;2.90;99.90;;;;;;5027685;28;20238;-54
2022/11/24 05:38:16;;;;;;;40.27;24.30;;;2.90;99.90;;;;;;5027403;28;20214;-53
2022/11/24 05:40:42;;;;;;;32.03;21.43;;;2.90;99.90;;;;;;5024036;28;20239;-53
2022/11/24 05:43:10;;;;;;;37.27;22.93;;;2.90;99.90;;;;;;5028586;28;20798;-54
2022/11/24 05:45:36;;;;;;;32.30;22.43;;;2.90;99.90;;;;;;5028327;28;20209;-54
2022/11/24 05:48:06;;;;;;;39.90;25.00;;;2.90;99.90;;;;;;5028253;28;20201;-54
2022/11/24 05:50:32;;;;;;;32.33;22.47;;;2.80;99.90;;;;;;5027552;28;20225;-54
2022/11/24 05:53:07;;;;;;;36.80;23.40;;;2.80;99.90;;;;;;5033381;28;20209;-54
2022/11/24 05:55:32;;;;;;;34.87;22.10;;;2.80;99.90;;;;;;5037277;28;20944;-59
2022/11/24 05:58:00;;;;;;;33.27;20.83;;;2.80;99.90;;;;;;5035947;28;20214;-54
2022/11/24 06:00:26;;;;;;;31.53;21.77;;;2.70;99.90;;;;;;5035257;28;20190;-55
2022/11/24 06:02:51;;;;;;;30.57;21.53;;;2.70;99.90;;;;;;5037165;28;20198;-55
2022/11/24 06:05:17;;;;;;;34.43;21.33;;;2.70;99.90;;;;;;5037351;28;20194;-55
2022/11/24 06:07:42;;;;;;;34.63;21.83;;;2.70;99.90;;;;;;5036841;28;20305;-54
2022/11/24 06:10:08;;;;;;;34.03;23.03;;;2.70;99.90;;;;;;5034752;28;20298;-55
2022/11/24 06:12:34;;;;;;;31.73;21.43;;;2.60;99.90;;;;;;5035637;28;20210;-54
2022/11/24 06:15:00;;;;;;;32.27;21.90;;;2.60;99.90;;;;;;5036841;28;20553;-53
2022/11/24 06:17:26;;;;;;;32.30;22.07;;;2.60;99.90;;;;;;5036757;28;20199;-54
2022/11/24 06:19:51;;;;;;;31.20;20.73;;;2.60;99.90;;;;;;5036819;28;20194;-54
2022/11/24 06:22:18;;;;;;;29.30;21.50;;;2.60;99.90;;;;;;5037444;28;20206;-54
2022/11/24 06:24:44;;;;;;;33.40;22.33;;;2.60;99.90;;;;;;5034826;28;20206;-54
2022/11/24 06:27:11;;;;;;;36.53;22.77;;;2.60;99.90;;;;;;5037039;28;20225;-54
2022/11/24 06:29:36;;;;;;;35.27;22.70;;;2.70;99.90;;;;;;5037068;28;20277;-55
2022/11/24 06:32:02;;;;;;;37.87;22.50;;;2.70;99.90;;;;;;5034313;28;20392;-54
2022/11/24 06:34:27;;;;;;;39.00;24.23;;;2.80;99.90;;;;;;5027043;28;20210;-54
2022/11/24 06:36:53;;;;;;;33.50;21.43;;;2.90;99.90;;;;;;5024864;28;20217;-55
2022/11/24 06:39:18;;;;;;;36.23;22.67;;;2.90;99.90;;;;;;5027917;28;20844;-54
2022/11/24 06:41:44;;;;;;;27.50;20.73;;;2.90;99.90;;;;;;5033287;28;20228;-54
2022/11/24 06:44:09;;;;;;;29.77;20.90;;;2.90;99.90;;;;;;5036446;28;20209;-54
2022/11/24 06:46:35;;;;;;;35.33;21.47;;;2.80;99.90;;;;;;5036621;28;20186;-53
2022/11/24 06:49:01;;;;;;;28.37;19.43;;;2.80;99.90;;;;;;5036372;28;20671;-54
2022/11/24 06:51:26;;;;;;;31.17;21.03;;;2.70;99.90;;;;;;5030312;28;20775;-54
2022/11/24 06:53:52;;;;;;;32.60;20.43;;;2.80;99.90;;;;;;5022835;28;20215;-54
2022/11/24 06:56:19;;;;;;;33.00;20.93;;;2.80;99.90;;;;;;5026869;28;20240;-54
2022/11/24 06:58:47;;;;;;;45.03;25.00;;;2.80;99.90;;;;;;5026905;28;20317;-54
2022/11/24 07:01:18;;;;;;;32.30;21.73;;;2.80;99.90;;;;;;5025036;28;20203;-55
2022/11/24 07:03:44;;;;;;;35.70;21.50;;;2.90;99.90;;;;;;5026428;28;20209;-54
2022/11/24 07:06:13;;;;;;;34.40;22.03;;;2.90;99.90;;;;;;5026219;28;20271;-67
2022/11/24 07:08:40;;;;;;;34.17;21.33;;;2.90;99.90;;;;;;5024522;28;20245;-55
2022/11/24 07:11:08;;;;;;;37.00;23.00;;;3.00;99.90;;;;;;5025908;28;20199;-56
2022/11/24 07:13:34;;;;;;;31.00;20.97;;;3.00;99.90;;;;;;5024992;28;20227;-54
2022/11/24 07:16:08;;;;;;;32.13;23.10;;;3.00;99.90;;;;;;5036221;28;20248;-55
2022/11/24 07:18:34;;;;;;;30.17;19.93;;;3.10;99.90;;;;;;5036444;28;20200;-55
2022/11/24 07:21:03;;;;;;;39.57;23.83;;;3.10;99.90;;;;;;5034095;28;20195;-56
2022/11/24 07:23:28;;;;;;;31.47;21.60;;;3.10;99.90;;;;;;5036390;28;20210;-55
2022/11/24 07:25:54;;;;;;;34.97;22.00;;;3.10;99.90;;;;;;5036906;28;20194;-55
2022/11/24 07:28:19;;;;;;;33.23;21.43;;;3.10;99.90;;;;;;5034262;28;20205;-55
2022/11/24 07:30:44;;;;;;;31.57;20.90;;;3.10;99.90;;;;;;5036332;28;20210;-55
2022/11/24 07:33:10;;;;;;;37.10;21.73;;;3.10;99.90;;;;;;5036587;28;20309;-55
2022/11/24 07:35:35;;;;;;;34.87;21.33;;;3.10;99.90;;;;;;5034386;28;20581;-56
2022/11/24 07:38:01;;;;;;;30.97;21.07;;;3.20;99.90;;;;;;5035867;28;20253;-55
2022/11/24 07:40:26;;;;;;;31.83;22.27;;;3.20;99.90;;;;;;5036369;28;20195;-55
2022/11/24 07:42:52;;;;;;;32.33;20.00;;;3.30;99.90;;;;;;5036234;28;20195;-54
2022/11/24 07:45:18;;;;;;;36.83;21.43;;;3.30;99.90;;;;;;5036339;28;20255;-55
2022/11/24 07:47:43;;;;;;;37.73;23.40;;;3.30;99.90;;;;;;5036059;28;20194;-55
2022/11/24 07:50:09;;;;;;;32.93;19.93;;;3.40;99.90;;;;;;5033246;28;20252;-55
2022/11/24 07:52:36;;;;;;;32.57;21.90;;;3.40;99.90;;;;;;5035393;28;20187;-56
2022/11/24 07:55:02;;;;;;;30.07;21.77;;;3.40;99.90;;;;;;5036263;28;20293;-55
2022/11/24 07:57:28;;;;;;;33.67;21.17;;;3.40;99.90;;;;;;5036205;28;20252;-55
2022/11/24 07:59:54;;;;;;;32.43;21.63;;;3.50;99.90;;;;;;5036349;28;20219;-55
2022/11/24 08:02:20;;;;;;;31.50;22.33;;;3.50;99.90;;;;;;5034401;28;20268;-54
2022/11/24 08:04:45;;;;;;;31.47;20.93;;;3.60;99.90;;;;;;5036318;28;20226;-56
2022/11/24 08:07:11;;;;;;;35.07;22.80;;;3.60;99.90;;;;;;5038848;28;20241;-56
2022/11/24 08:09:36;;;;;;;34.50;21.33;;;3.60;99.90;;;;;;5032190;28;20199;-57
2022/11/24 08:12:02;;;;;;;34.87;21.37;;;3.60;99.90;;;;;;5032678;28;20199;-56
2022/11/24 08:14:28;;;;;;;29.60;20.00;;;3.60;99.90;;;;;;5024900;28;20208;-56
2022/11/24 08:16:53;;;;;;;32.60;20.67;;;3.60;99.90;;;;;;5024091;28;20222;-56
2022/11/24 08:19:20;;;;;;;33.87;21.63;;;3.60;99.90;;;;;;5026370;28;20211;-54
2022/11/24 08:21:45;;;;;;;30.90;20.57;;;3.70;99.90;;;;;;5025918;28;20199;-56
2022/11/24 08:24:14;;;;;;;29.30;20.17;;;3.80;99.90;;;;;;5024256;28;20208;-56
2022/11/24 08:26:40;;;;;;;32.80;20.23;;;3.80;99.90;;;;;;5024192;28;20211;-54
2022/11/24 08:29:05;;;;;;;29.83;20.30;;;3.90;99.90;;;;;;5030182;28;20301;-54
2022/11/24 08:31:34;;;;;;;28.50;20.20;;;4.00;99.90;;;;;;5025404;28;20294;-54
2022/11/24 08:34:01;;;;;;;28.83;19.43;;;4.00;99.90;;;;;;5026846;28;20712;-54
2022/11/24 08:36:27;;;;;;;29.83;19.83;;;4.10;99.90;;;;;;5030305;28;20214;-55
2022/11/24 08:38:57;;;;;;;26.20;18.63;;;4.20;99.90;;;;;;5025628;28;20225;-55
2022/11/24 08:41:23;;;;;;;23.73;17.47;;;4.30;99.90;;;;;;5030529;28;20673;-54
2022/11/24 08:43:49;;;;;;;24.90;17.40;;;4.30;99.90;;;;;;5030226;28;20203;-55
2022/11/24 08:46:16;;;;;;;27.60;18.10;;;4.40;99.90;;;;;;5029652;28;20200;-54
2022/11/24 08:48:42;;;;;;;28.17;19.57;;;4.50;99.90;;;;;;5029713;28;20226;-54
2022/11/24 08:51:14;;;;;;;32.77;19.53;;;4.50;99.90;;;;;;5029499;28;20259;-54
2022/11/24 08:53:41;;;;;;;33.47;21.37;;;4.60;99.90;;;;;;5029097;28;20214;-55
2022/11/24 08:56:07;;;;;;;25.33;19.23;;;4.60;99.90;;;;;;5034513;28;20215;-55
2022/11/24 08:58:33;;;;;;;28.57;19.87;;;4.60;99.90;;;;;;5028883;28;20592;-55
2022/11/24 09:01:06;;;;;;;31.70;19.23;;;4.70;99.90;;;;;;5026623;28;20202;-55
2022/11/24 09:03:33;;;;;;;23.67;17.47;;;4.70;99.90;;;;;;5026983;28;20205;-54
2022/11/24 09:05:58;;;;;;;26.77;18.10;;;4.60;99.90;;;;;;5028428;28;20199;-54
2022/11/24 09:08:24;;;;;;;25.20;18.30;;;4.60;99.90;;;;;;5032643;28;20570;-54
2022/11/24 09:10:50;;;;;;;30.10;18.43;;;4.60;99.90;;;;;;5024468;28;20202;-55
2022/11/24 09:13:16;;;;;;;28.90;19.20;;;4.70;99.90;;;;;;5031030;28;20198;-54
2022/11/24 09:15:41;;;;;;;29.17;19.40;;;4.80;99.90;;;;;;5026481;28;20617;-54
2022/11/24 09:18:06;;;;;;;26.23;17.60;;;4.90;99.90;;;;;;5027726;28;20211;-54
2022/11/24 09:20:32;;;;;;;25.53;18.50;;;4.90;99.90;;;;;;5029323;28;20191;-56
2022/11/24 09:22:57;;;;;;;26.67;19.43;;;5.00;99.90;;;;;;5028478;28;20199;-56
2022/11/24 09:25:23;;;;;;;25.87;17.63;;;5.10;99.90;;;;;;5027656;28;20215;-56
2022/11/24 09:27:49;;;;;;;26.30;18.87;;;5.20;99.90;;;;;;5029756;28;20245;-55
2022/11/24 09:30:15;;;;;;;28.70;18.07;;;5.20;99.90;;;;;;5029530;28;20207;-55
2022/11/24 09:32:41;;;;;;;29.27;19.30;;;5.20;99.90;;;;;;5029597;28;20265;-55
2022/11/24 09:35:07;;;;;;;25.90;18.57;;;5.10;99.90;;;;;;5029236;28;20203;-55
2022/11/24 09:37:32;;;;;;;24.77;17.40;;;5.20;99.90;;;;;;5027367;28;20226;-55
2022/11/24 09:39:58;;;;;;;24.83;17.60;;;5.20;99.90;;;;;;5026708;28;20282;-55
2022/11/24 09:42:35;;;;;;;22.77;18.47;;;5.10;99.90;;;;;;5028902;28;20563;-55
2022/11/24 09:45:20;;;;;;;27.07;19.70;;;5.00;99.90;;;;;;5029064;28;20209;-56
2022/11/24 09:48:00;;;;;;;24.33;17.63;;;4.90;99.90;;;;;;5027106;28;20214;-55
2022/11/24 09:50:30;;;;;;;26.37;18.57;;;4.90;99.90;;;;;;5026515;28;20199;-55
2022/11/24 09:53:37;;;;;;;28.53;20.23;;;5.00;99.90;;;;;;5029211;28;20195;-55
2022/11/24 09:56:22;;;;;;;29.17;18.97;;;5.00;99.90;;;;;;5018409;28;20768;-55
2022/11/24 09:58:52;;;;;;;26.43;19.73;;;5.20;99.90;;;;;;5026133;28;20219;-55
2022/11/24 10:01:21;;;;;;;23.87;18.63;;;5.30;99.90;;;;;;5031429;28;20194;-55
2022/11/24 10:03:51;;;;;;;29.60;19.87;;;5.40;99.90;;;;;;5026508;28;20199;-55
2022/11/24 10:06:33;;;;;;;27.37;18.67;;;5.60;99.90;;;;;;5028424;28;20207;-56
2022/11/24 10:09:23;;;;;;;26.03;19.60;;;5.60;99.90;;;;;;5026919;28;20214;-57
2022/11/24 10:12:06;;;;;;;27.93;19.13;;;5.70;99.90;;;;;;5027261;28;20662;-57
2022/11/24 10:14:57;;;;;;;26.63;18.90;;;5.80;99.90;;;;;;5027332;28;20207;-55
2022/11/24 10:18:00;;;;;;;24.40;17.83;;;5.90;99.90;;;;;;5027210;28;20242;-56
2022/11/24 10:21:04;;;;;;;29.53;19.33;;;6.00;99.90;;;;;;5023989;28;20842;-64
2022/11/24 10:23:44;;;;;;;24.77;17.87;;;6.00;99.90;;;;;;5013137;28;20669;-56
2022/11/24 10:26:18;;;;;;;27.67;19.47;;;6.20;99.90;;;;;;5025275;28;20631;-56
2022/11/24 10:28:52;;;;;;;28.40;19.00;;;6.20;99.90;;;;;;5024720;28;20637;-55
2022/11/24 10:31:28;;;;;;;30.87;20.93;;;6.30;99.90;;;;;;5027857;28;20205;-57
2022/11/24 10:33:56;;;;;;;26.43;19.43;;;6.30;99.90;;;;;;5028401;28;20203;-57
2022/11/24 10:36:41;;;;;;;34.30;20.33;;;6.20;99.90;;;;;;5026792;28;20241;-57
2022/11/24 10:39:35;;;;;;;30.33;20.13;;;6.10;99.90;;;;;;5028938;28;20213;-57
2022/11/24 10:42:26;;;;;;;29.87;21.13;;;6.00;99.90;;;;;;5011156;28;20245;-55
2022/11/24 10:45:00;;;;;;;27.17;20.33;;;5.90;99.90;;;;;;5026712;28;20649;-55
2022/11/24 10:47:26;;;;;;;28.50;19.73;;;5.90;99.90;;;;;;5027630;28;20219;-56
2022/11/24 10:50:00;;;;;;;31.20;21.30;;;5.90;99.90;;;;;;5028447;28;20755;-56
2022/11/24 10:52:28;;;;;;;27.60;20.53;;;5.90;99.90;;;;;;5027837;28;20247;-54
2022/11/24 10:55:03;;;;;;;31.07;21.43;;;6.00;99.90;;;;;;5025361;28;20214;-54
2022/11/24 10:57:32;;;;;;;27.43;20.83;;;6.20;99.90;;;;;;5027369;28;20688;-54
2022/11/24 10:59:57;;;;;;;28.20;20.67;;;6.40;99.90;;;;;;5022999;28;20658;-54
2022/11/24 11:02:32;;;;;;;28.70;20.00;;;6.50;99.90;;;;;;5024917;28;20203;-56
2022/11/24 11:04:57;;;;;;;26.40;20.40;;;6.60;99.90;;;;;;5027002;28;20195;-56
2022/11/24 11:07:25;;;;;;;31.53;19.47;;;6.70;99.90;;;;;;5029213;28;20668;-55
2022/11/24 11:10:18;;;;;;;28.23;20.87;;;6.70;99.90;;;;;;5025350;28;20309;-55
2022/11/24 11:12:44;;;;;;;30.53;21.17;;;6.80;99.90;;;;;;5026069;28;20282;-56
2022/11/24 11:15:29;;;;;;;27.27;20.47;;;6.90;99.90;;;;;;5026083;28;20207;-55
2022/11/24 11:18:01;;;;;;;29.50;21.00;;;6.90;99.90;;;;;;5028027;28;20226;-73
2022/11/24 11:20:28;;;;;;;27.57;19.90;;;6.80;99.90;;;;;;5022986;28;20226;-55
2022/11/24 11:22:55;;;;;;;27.57;20.47;;;6.90;99.90;;;;;;5028503;28;20203;-56
2022/11/24 11:25:47;;;;;;;32.07;21.73;;;7.00;99.90;;;;;;5026585;28;20206;-55
2022/11/24 11:28:26;;;;;;;27.27;20.13;;;7.10;99.90;;;;;;5022831;28;20221;-55
2022/11/24 11:31:01;;;;;;;31.20;20.33;;;7.30;99.90;;;;;;5025867;28;20210;-55
2022/11/24 11:33:31;;;;;;;28.10;19.10;;;7.50;99.90;;;;;;5026064;28;20695;-55
2022/11/24 11:36:00;;;;;;;24.50;18.33;;;7.60;99.90;;;;;;5025849;28;20548;-55
2022/11/24 11:38:30;;;;;;;32.23;19.97;;;7.70;99.90;;;;;;5026276;28;20195;-56
2022/11/24 11:40:56;;;;;;;26.80;19.93;;;7.80;99.90;;;;;;5022723;28;20253;-68
2022/11/24 11:43:30;;;;;;;26.07;20.60;;;7.80;99.90;;;;;;5026958;28;20207;-55
2022/11/24 11:46:03;;;;;;;31.30;21.10;;;7.90;99.90;;;;;;5026656;28;20230;-56
2022/11/24 11:48:32;;;;;;;28.87;22.30;;;8.00;99.90;;;;;;5027361;28;20267;-55
2022/11/24 11:51:28;;;;;;;28.00;20.87;;;8.00;99.90;;;;;;5024717;28;20230;-55
2022/11/24 11:54:11;;;;;;;41.23;25.50;;;7.90;99.90;;;;;;5023973;28;20351;-56
2022/11/24 11:56:48;;;;;;;35.20;22.83;;;7.90;99.90;;;;;;5026205;28;20245;-55
2022/11/24 11:59:35;;;;;;;31.07;21.03;;;7.90;99.90;;;;;;5026097;28;20231;-54
2022/11/24 12:02:38;;;;;;;31.17;21.57;;;7.70;99.90;;;;;;5023618;28;20199;-55
2022/11/24 12:05:28;;;;;;;30.47;22.80;;;7.60;99.90;;;;;;5026126;28;20195;-55
2022/11/24 12:08:18;;;;;;;31.87;21.77;;;7.60;99.90;;;;;;5025045;28;20270;-61
2022/11/24 12:10:52;;;;;;;25.93;20.47;;;7.40;99.90;;;;;;5028857;28;20761;-55
2022/11/24 12:13:40;;;;;;;32.27;22.00;;;7.40;99.90;;;;;;5028483;28;20206;-55
2022/11/24 12:16:29;;;;;;;28.83;20.37;;;7.30;99.90;;;;;;5030612;28;20226;-55
2022/11/24 12:19:29;;;;;;;24.90;19.50;;;7.30;99.90;;;;;;5032598;28;20217;-55
2022/11/24 12:22:07;;;;;;;28.97;21.67;;;7.40;99.90;;;;;;5029142;28;20222;-55
2022/11/24 12:24:42;;;;;;;30.80;21.43;;;7.40;99.90;;;;;;5027949;28;20680;-55
2022/11/24 12:27:18;;;;;;;30.27;21.43;;;7.50;99.90;;;;;;5032506;28;20206;-54
2022/11/24 12:29:52;;;;;;;29.70;21.47;;;7.60;99.90;;;;;;5028892;28;20190;-55
2022/11/24 12:32:45;;;;;;;29.90;21.10;;;7.60;99.90;;;;;;5027980;28;20692;-53
2022/11/24 12:35:37;;;;;;;26.00;18.20;;;7.70;99.90;;;;;;5031304;28;20257;-56
2022/11/24 12:38:03;;;;;;;26.83;19.20;;;7.70;99.90;;;;;;5027901;28;20626;-53
2022/11/24 12:40:51;;;;;;;29.43;21.00;;;7.80;99.90;;;;;;5029759;28;20213;-56
2022/11/24 12:43:48;;;;;;;28.00;20.67;;;7.60;99.90;;;;;;5038336;28;20310;-55
2022/11/24 12:46:33;;;;;;;26.03;20.07;;;7.70;99.90;;;;;;5028487;28;20239;-74
2022/11/24 12:49:06;;;;;;;27.17;19.50;;;7.70;99.90;;;;;;5029453;28;20277;-71